TimeCST,TemperatureF,Dew PointF,Humidity,Sea Level PressureIn,VisibilityMPH,Wind Direction,Wind SpeedMPH,Gust SpeedMPH,PrecipitationIn,Events,Conditions,WindDirDegrees,DateUTC
12:15 AM,27.5,25.3,92,30.48,10.0,SSE,5.8,-,N/A,,Clear,160,2012-11-14 06:15:00
12:35 AM,28.4,25.7,90,30.48,10.0,SSE,4.6,-,N/A,,Clear,160,2012-11-14 06:35:00
12:55 AM,28.0,25.7,91,30.47,10.0,SSE,4.6,-,N/A,,Clear,150,2012-11-14 06:55:00
1:15 AM,29.3,26.6,90,30.46,10.0,SE,6.9,-,N/A,,Scattered Clouds,140,2012-11-14 07:15:00
1:35 AM,30.2,27.0,88,30.46,10.0,SSE,6.9,-,N/A,,Clear,160,2012-11-14 07:35:00
1:55 AM,30.2,27.1,88,30.47,10.0,SSE,6.9,-,N/A,,Clear,160,2012-11-14 07:55:00
2:15 AM,30.2,27.5,90,30.47,10.0,SSE,6.9,-,N/A,,Clear,160,2012-11-14 08:15:00
2:35 AM,30.7,27.7,88,30.48,10.0,SSE,6.9,-,N/A,,Mostly Cloudy,160,2012-11-14 08:35:00
2:55 AM,30.9,28.2,90,30.48,10.0,SSE,6.9,-,N/A,,Overcast,150,2012-11-14 08:55:00
3:15 AM,31.1,28.2,89,30.47,10.0,SSE,8.1,-,N/A,,Overcast,150,2012-11-14 09:15:00
3:55 AM,31.8,28.0,86,30.46,10.0,SE,6.9,-,N/A,,Mostly Cloudy,140,2012-11-14 09:55:00
4:15 AM,30.9,27.5,87,30.47,10.0,SSE,6.9,-,N/A,,Scattered Clouds,150,2012-11-14 10:15:00
4:35 AM,30.0,27.0,88,30.47,10.0,SSE,5.8,-,N/A,,Clear,160,2012-11-14 10:35:00
4:55 AM,29.3,26.8,90,30.47,10.0,SE,6.9,-,N/A,,Mostly Cloudy,140,2012-11-14 10:55:00
5:15 AM,30.2,27.3,89,30.47,10.0,SSE,8.1,-,N/A,,Overcast,150,2012-11-14 11:15:00
5:35 AM,30.9,27.7,88,30.47,10.0,SSE,8.1,-,N/A,,Overcast,160,2012-11-14 11:35:00
5:55 AM,31.1,28.2,89,30.47,10.0,SSE,8.1,-,N/A,,Overcast,160,2012-11-14 11:55:00
6:15 AM,31.1,28.0,88,30.47,10.0,SSE,6.9,-,N/A,,Overcast,160,2012-11-14 12:15:00
6:35 AM,31.1,28.4,90,30.47,10.0,SSE,9.2,-,N/A,,Overcast,150,2012-11-14 12:35:00
6:55 AM,31.3,28.2,88,30.47,10.0,SSE,9.2,-,N/A,,Overcast,150,2012-11-14 12:55:00
7:15 AM,31.8,28.4,87,30.48,10.0,SSE,10.4,-,N/A,,Mostly Cloudy,160,2012-11-14 13:15:00
7:35 AM,32.0,28.4,87,30.48,10.0,SSE,9.2,-,N/A,,Mostly Cloudy,150,2012-11-14 13:35:00
7:55 AM,32.0,28.6,87,30.49,10.0,SSE,8.1,-,N/A,,Mostly Cloudy,160,2012-11-14 13:55:00
8:15 AM,32.9,28.9,85,30.49,10.0,South,8.1,-,N/A,,Scattered Clouds,170,2012-11-14 14:15:00
8:35 AM,33.1,29.1,85,30.49,10.0,SSE,8.1,-,N/A,,Scattered Clouds,160,2012-11-14 14:35:00
8:55 AM,33.8,29.1,83,30.49,10.0,SSE,5.8,-,N/A,,Clear,160,2012-11-14 14:55:00
9:15 AM,34.9,29.5,81,30.49,10.0,SSE,10.4,-,N/A,,Clear,150,2012-11-14 15:15:00
9:35 AM,35.8,29.3,77,30.48,10.0,SSE,13.8,-,N/A,,Clear,160,2012-11-14 15:35:00
9:55 AM,37.6,29.8,74,30.48,10.0,SSE,11.5,-,N/A,,Clear,150,2012-11-14 15:55:00
10:15 AM,38.7,30.4,72,30.48,10.0,SSE,16.1,-,N/A,,Clear,160,2012-11-14 16:15:00
10:35 AM,39.2,30.0,70,30.47,10.0,SSE,16.1,-,N/A,,Clear,160,2012-11-14 16:35:00
10:55 AM,40.8,30.0,65,30.48,10.0,South,13.8,-,N/A,,Clear,170,2012-11-14 16:55:00
11:15 AM,42.6,30.2,61,30.46,10.0,South,16.1,-,N/A,,Clear,170,2012-11-14 17:15:00
11:35 AM,41.0,29.8,64,30.45,10.0,SSE,16.1,-,N/A,,Clear,160,2012-11-14 17:35:00
11:55 AM,42.1,29.7,61,30.44,10.0,South,17.3,-,N/A,,Clear,170,2012-11-14 17:55:00
12:15 PM,42.4,29.5,60,30.44,10.0,South,15.0,18.4,N/A,,Clear,170,2012-11-14 18:15:00
12:55 PM,44.1,29.3,56,30.42,10.0,South,10.4,-,N/A,,Clear,180,2012-11-14 18:55:00
1:15 PM,44.2,29.5,56,30.42,10.0,South,10.4,-,N/A,,Clear,190,2012-11-14 19:15:00
1:35 PM,44.6,28.9,54,30.41,10.0,South,12.7,17.3,N/A,,Clear,190,2012-11-14 19:35:00
1:55 PM,45.5,29.1,53,30.41,10.0,South,12.7,-,N/A,,Clear,190,2012-11-14 19:55:00
2:15 PM,45.5,30.2,55,30.40,10.0,South,12.7,-,N/A,,Clear,170,2012-11-14 20:15:00
2:35 PM,45.1,29.8,55,30.39,10.0,South,12.7,-,N/A,,Clear,170,2012-11-14 20:35:00
2:55 PM,45.1,30.4,56,30.39,10.0,SSE,11.5,-,N/A,,Clear,160,2012-11-14 20:55:00
3:15 PM,44.6,30.0,57,30.39,10.0,SSE,12.7,-,N/A,,Clear,160,2012-11-14 21:15:00
3:35 PM,44.1,29.8,57,30.39,10.0,South,12.7,-,N/A,,Clear,170,2012-11-14 21:35:00
3:55 PM,43.0,29.7,59,30.38,10.0,SSE,12.7,-,N/A,,Clear,160,2012-11-14 21:55:00
4:15 PM,41.4,30.0,64,30.38,10.0,South,9.2,-,N/A,,Clear,170,2012-11-14 22:15:00
4:35 PM,37.9,30.2,74,30.38,10.0,SSE,6.9,-,N/A,,Clear,160,2012-11-14 22:35:00
4:55 PM,35.2,30.0,81,30.38,10.0,SSE,9.2,-,N/A,,Clear,160,2012-11-14 22:55:00
5:15 PM,34.3,29.8,84,30.38,10.0,SSE,9.2,-,N/A,,Clear,150,2012-11-14 23:15:00
5:35 PM,34.0,29.3,83,30.38,10.0,SSE,10.4,-,N/A,,Clear,150,2012-11-14 23:35:00
5:55 PM,33.4,29.3,85,30.38,10.0,SSE,10.4,-,N/A,,Clear,150,2012-11-14 23:55:00
6:15 PM,34.0,28.4,80,30.38,10.0,SSE,9.2,-,N/A,,Clear,150,2012-11-15 00:15:00
6:35 PM,32.9,28.2,83,30.38,10.0,SE,8.1,-,N/A,,Clear,140,2012-11-15 00:35:00
6:55 PM,32.0,28.0,85,30.38,10.0,SE,9.2,-,N/A,,Clear,140,2012-11-15 00:55:00
7:15 PM,31.1,27.5,87,30.38,10.0,SSE,8.1,-,N/A,,Clear,150,2012-11-15 01:15:00
7:35 PM,30.2,26.6,86,30.39,10.0,SSE,5.8,-,N/A,,Clear,150,2012-11-15 01:35:00
7:55 PM,30.7,27.1,86,30.38,10.0,SSE,6.9,-,N/A,,Clear,150,2012-11-15 01:55:00
8:15 PM,30.6,27.5,88,30.37,10.0,SSE,6.9,-,N/A,,Clear,150,2012-11-15 02:15:00
8:35 PM,31.3,28.0,88,30.37,10.0,SSE,6.9,-,N/A,,Clear,160,2012-11-15 02:35:00
8:55 PM,29.8,27.0,89,30.38,10.0,SSE,6.9,-,N/A,,Clear,160,2012-11-15 02:55:00
9:15 PM,30.0,27.1,89,30.37,10.0,South,6.9,-,N/A,,Clear,170,2012-11-15 03:15:00
9:35 PM,29.8,27.1,90,30.36,10.0,SSE,8.1,-,N/A,,Clear,160,2012-11-15 03:35:00
9:55 PM,29.3,26.8,90,30.37,10.0,SSE,6.9,-,N/A,,Clear,160,2012-11-15 03:55:00
10:15 PM,29.7,27.3,91,30.37,10.0,SSE,8.1,-,N/A,,Clear,160,2012-11-15 04:15:00
10:35 PM,30.2,27.3,89,30.37,10.0,SSE,5.8,-,N/A,,Clear,160,2012-11-15 04:35:00
10:55 PM,30.9,27.9,88,30.37,10.0,SSE,8.1,-,N/A,,Clear,160,2012-11-15 04:55:00
11:15 PM,30.7,27.7,88,30.36,10.0,SSE,8.1,-,N/A,,Clear,160,2012-11-15 05:15:00
11:35 PM,30.2,27.5,90,30.36,10.0,SSE,9.2,-,N/A,,Clear,150,2012-11-15 05:35:00
11:55 PM,30.7,27.7,88,30.36,10.0,SSE,4.6,-,N/A,,Clear,150,2012-11-15 05:55:00